الصفحة الرئيسية
METAR-TAF:

METAR-TAF

مطار :

Watertown, داكوتا الجنوبية, الولايات المتحدة

دائرة عرض: 44-54-17N, خط طول: 097-08-58W, ارتفاع: 532 متر

مراقبة الطقس الحالي

تاريخ ووقت الإصدار 53 دقيقة قبل الساعة 02:53UTC
ريح 7 عقدة من الجنوب/الجنوب الغربي
درجة الحرارة -15°درجة مئوية
الرطوبة 78%
ضغط 1024 hPa
الرؤية: 16.1 كم
غيوم قليلة على ارتفاع 9500 قدم

METAR: KATY 220253Z AUTO 21007KT 10SM FEW095 M15/M18 A3025 RMK AO2 SLP292 T11501178 53028

زمن: 21:46 (03:46 UTC)

توقعات

تاريخ ووقت الإصدار 4ساعات و 21 دقيقة قبل الساعة 23:25UTC
التوقعات صالحة من22 الساعة 00 UTC إلى 22 الساعة 24 UTC
ريح 3 عقدةمن اتجاهات متغيرة
الرؤية: 10 كم
غيوم مفككة على ارتفاع 25000 قدم
من 22 الساعة 1400 UTC
ريح 3 عقدةمن اتجاهات متغيرة
الرؤية: 10 كم
ملبد بالغيوم على ارتفاع 4000 قدم
ثلوج خفيفة
من 22 الساعة 1800 UTC
ريح 10 عقدة من الجنوب الشرقي
الرؤية: 3.2 كم
ملبد بالغيوم على ارتفاع 400 قدم
ثلوج خفيفة

TAF: KATY 212325Z 2200/2224 VRB03KT P6SM BKN250 FM221400 VRB03KT P6SM -SN OVC040 FM221800 13010KT 2SM -SN OVC004

أرصاد الطقس والتوقعات من أكثر من 4000 مطار (تقارير الطقس للمطار METAR والتنبؤ بالطقس بالمطارTAF).

المحطات المتاحة هي النقط الصفراء والحمراء على الخريطة.

حرك المؤشر فوق النقطة لمعرفة اسم المحطة.

ثم انقر لمعرفة أرصاد وتوقعات الطقس.

لتغيير الخارطة: اضغط على الأزرار الخضراء مع رمز الصليب الأسود للتكبير. على الزر الأخضر مع شرطة للتصغير، أو على الأسهم الخضراء للخرائط المجاورة.


METAR-TAF: